createdAt,value
2023-12-26T00:00:38.693Z,99807.66
2023-12-26T00:03:08.051Z,99794.09
2023-12-26T00:05:35.171Z,99784.84
2023-12-26T00:08:05.379Z,99786.47
2023-12-26T00:10:32.059Z,99771.66
2023-12-26T00:13:01.150Z,99772.47
2023-12-26T00:15:28.427Z,99773.06
2023-12-26T00:17:55.108Z,99778.03
2023-12-26T00:20:21.790Z,99784.81
2023-12-26T00:22:48.373Z,99782.63
2023-12-26T00:25:14.970Z,99782.44
2023-12-26T00:27:42.472Z,99775.03
2023-12-26T00:30:09.603Z,99754.84
2023-12-26T00:32:36.414Z,99761.44
2023-12-26T00:35:03.591Z,99756.78
2023-12-26T00:37:30.501Z,99746.41
2023-12-26T00:39:56.986Z,99748.22
2023-12-26T00:42:24.624Z,99751.59
2023-12-26T00:44:52.438Z,99748.81
2023-12-26T00:47:19.058Z,99746.78
2023-12-26T00:49:45.724Z,99742.41
2023-12-26T00:52:12.359Z,99739.38
2023-12-26T00:54:38.917Z,99744.38
2023-12-26T00:57:05.598Z,99748.94
2023-12-26T00:59:32.251Z,99734.53
2023-12-26T01:02:02.602Z,99722.69
2023-12-26T01:04:29.891Z,99718.66
2023-12-26T01:06:56.506Z,99719.03
2023-12-26T01:09:23.063Z,99717.81
2023-12-26T01:11:49.742Z,99708.00
2023-12-26T01:14:16.411Z,99712.75
2023-12-26T01:16:46.322Z,99712.16
2023-12-26T01:19:14.247Z,99709.13
2023-12-26T01:21:41.054Z,99704.50
2023-12-26T01:24:07.640Z,99703.25
2023-12-26T01:26:34.617Z,99699.25
2023-12-26T01:29:02.331Z,99693.38
2023-12-26T01:31:29.564Z,99694.78
2023-12-26T01:33:56.196Z,99697.16
2023-12-26T01:36:22.888Z,99699.53
2023-12-26T01:38:49.478Z,99684.53
2023-12-26T01:41:16.093Z,99681.47
2023-12-26T01:43:42.617Z,99676.66
2023-12-26T01:46:10.138Z,99680.84
2023-12-26T01:48:37.653Z,99670.25
2023-12-26T01:51:05.864Z,99664.59
2023-12-26T01:53:33.159Z,99673.97
2023-12-26T01:56:00.370Z,99662.81
2023-12-26T01:58:26.986Z,99661.56
2023-12-26T02:00:53.864Z,99661.69
2023-12-26T02:03:20.987Z,99650.09
2023-12-26T02:05:48.001Z,99652.25
2023-12-26T02:08:18.447Z,99646.81
2023-12-26T02:10:46.283Z,99645.00
2023-12-26T02:13:13.121Z,99642.41
2023-12-26T02:15:39.710Z,99637.00
2023-12-26T02:18:06.852Z,99630.00
2023-12-26T02:20:33.511Z,99630.75
2023-12-26T02:23:02.600Z,99631.34
2023-12-26T02:25:30.990Z,99626.72
2023-12-26T02:27:59.932Z,99622.09
2023-12-26T02:30:27.559Z,99615.75
2023-12-26T02:32:55.215Z,99618.25
2023-12-26T02:35:22.703Z,99606.28
2023-12-26T02:37:50.950Z,99607.44
2023-12-26T02:40:17.547Z,99591.81
2023-12-26T02:42:44.066Z,99583.22
2023-12-26T02:45:11.208Z,99581.41
2023-12-26T02:47:38.091Z,99567.38
2023-12-26T02:50:07.206Z,99568.75
2023-12-26T02:52:33.741Z,99578.94
2023-12-26T02:55:00.278Z,99564.69
2023-12-26T02:57:26.809Z,99568.66
2023-12-26T02:59:53.353Z,99563.47
2023-12-26T03:02:20.202Z,99559.25
2023-12-26T03:04:47.391Z,99559.59
2023-12-26T03:07:13.887Z,99557.22
2023-12-26T03:09:40.420Z,99549.66
2023-12-26T03:12:07.119Z,99552.03
2023-12-26T03:14:33.711Z,99544.00
2023-12-26T03:17:00.286Z,99538.56
2023-12-26T03:19:27.253Z,99524.91
2023-12-26T03:21:53.990Z,99520.94
2023-12-26T03:24:20.500Z,99512.47
2023-12-26T03:26:47.114Z,99517.91
2023-12-26T03:29:13.723Z,99514.50
2023-12-26T03:31:45.016Z,99505.44
2023-12-26T03:34:12.414Z,99508.63
2023-12-26T03:36:47.021Z,99488.03
2023-12-26T03:39:13.826Z,99487.44
2023-12-26T03:41:40.514Z,99475.81
2023-12-26T03:44:07.437Z,99480.00
2023-12-26T03:46:34.728Z,99476.97
2023-12-26T03:49:01.702Z,99468.38
2023-12-26T03:51:28.423Z,99475.97
2023-12-26T03:53:55.779Z,99469.72
2023-12-26T03:56:22.341Z,99456.72
2023-12-26T03:58:49.666Z,99461.16
2023-12-26T04:01:16.185Z,99458.16
2023-12-26T04:03:42.940Z,99451.97
2023-12-26T04:06:09.616Z,99443.31
2023-12-26T04:08:36.201Z,99434.19
2023-12-26T04:11:02.863Z,99440.97
2023-12-26T04:13:29.390Z,99434.19
2023-12-26T04:15:55.910Z,99426.94
2023-12-26T04:18:22.514Z,99421.63
2023-12-26T04:20:49.107Z,99415.06
2023-12-26T04:23:15.638Z,99411.06
2023-12-26T04:25:42.146Z,99400.91
2023-12-26T04:28:08.658Z,99399.66
2023-12-26T04:30:35.299Z,99398.28
2023-12-26T04:33:02.533Z,99390.84
2023-12-26T04:35:29.224Z,99392.22
2023-12-26T04:37:55.732Z,99392.78
2023-12-26T04:40:22.364Z,99385.50
2023-12-26T04:42:48.942Z,99369.34
2023-12-26T04:45:15.647Z,99369.91
2023-12-26T04:47:42.328Z,99365.97
2023-12-26T04:50:09.291Z,99365.50
2023-12-26T04:52:36.114Z,99357.47
2023-12-26T04:55:03.609Z,99357.81
2023-12-26T04:57:30.179Z,99354.44
2023-12-26T04:59:56.892Z,99349.66
2023-12-26T05:02:23.659Z,99355.22
2023-12-26T05:04:50.289Z,99350.25
2023-12-26T05:07:16.883Z,99348.44
2023-12-26T05:09:44.687Z,99341.22
2023-12-26T05:12:11.346Z,99329.19
2023-12-26T05:14:38.046Z,99335.53
2023-12-26T05:17:04.756Z,99335.31
2023-12-26T05:19:31.510Z,99328.75
2023-12-26T05:21:58.169Z,99328.63
2023-12-26T05:24:24.749Z,99328.97
2023-12-26T05:26:51.422Z,99337.31
2023-12-26T05:29:18.006Z,99324.88
2023-12-26T05:31:44.563Z,99320.00
2023-12-26T05:34:11.243Z,99331.78
2023-12-26T05:36:38.041Z,99316.94
2023-12-26T05:39:05.124Z,99317.25
2023-12-26T05:41:31.871Z,99321.00
2023-12-26T05:43:58.597Z,99310.34
2023-12-26T05:46:32.223Z,99315.88
2023-12-26T05:48:59.954Z,99312.03
2023-12-26T05:51:27.391Z,99312.81
2023-12-26T05:53:54.054Z,99312.28
2023-12-26T05:56:21.225Z,99317.25
2023-12-26T05:58:47.920Z,99314.16
2023-12-26T06:01:14.587Z,99321.75
2023-12-26T06:03:41.309Z,99325.72
2023-12-26T06:06:15.104Z,99316.06
2023-12-26T06:08:42.183Z,99315.06
2023-12-26T06:11:09.535Z,99310.41
2023-12-26T06:13:36.110Z,99306.53
2023-12-26T06:16:02.669Z,99306.88
2023-12-26T06:18:29.309Z,99309.81
2023-12-26T06:20:55.925Z,99313.53
2023-12-26T06:23:22.473Z,99310.69
2023-12-26T06:25:48.977Z,99314.88
2023-12-26T06:28:15.493Z,99314.63
2023-12-26T06:30:42.162Z,99319.84
2023-12-26T06:33:08.969Z,99320.41
2023-12-26T06:35:35.539Z,99322.00
2023-12-26T06:38:02.146Z,99328.78
2023-12-26T06:40:28.663Z,99341.00
2023-12-26T06:42:55.437Z,99362.66
2023-12-26T06:45:22.140Z,99396.28
2023-12-26T06:47:48.810Z,99390.28
2023-12-26T06:50:15.682Z,99377.47
2023-12-26T06:52:42.290Z,99380.78
2023-12-26T06:55:08.886Z,99367.19
2023-12-26T06:57:35.352Z,99373.69
2023-12-26T07:00:02.281Z,99372.09
2023-12-26T07:02:28.971Z,99377.06
2023-12-26T07:04:55.519Z,99385.69
2023-12-26T07:07:22.135Z,99384.63
2023-12-26T07:09:48.601Z,99394.06
2023-12-26T07:12:15.291Z,99392.22
2023-12-26T07:14:41.920Z,99395.84
2023-12-26T07:17:08.537Z,99393.03
2023-12-26T07:19:35.344Z,99399.25
2023-12-26T07:22:02.038Z,99408.66
2023-12-26T07:24:28.809Z,99412.84
2023-12-26T07:26:55.373Z,99423.47
2023-12-26T07:29:24.631Z,99427.91
2023-12-26T07:31:53.737Z,99421.34
2023-12-26T07:34:20.316Z,99426.78
2023-12-26T07:36:46.916Z,99431.44
2023-12-26T07:39:13.428Z,99445.25
2023-12-26T07:41:40.164Z,99439.47
2023-12-26T07:44:06.769Z,99439.72
2023-12-26T07:46:33.276Z,99451.69
2023-12-26T07:48:59.952Z,99453.31
2023-12-26T07:51:26.668Z,99461.34
2023-12-26T07:53:53.793Z,99456.38
2023-12-26T07:56:20.461Z,99458.97
2023-12-26T07:58:46.954Z,99461.34
2023-12-26T08:01:14.949Z,99463.94
2023-12-26T08:03:41.715Z,99458.19
2023-12-26T08:06:08.449Z,99473.00
2023-12-26T08:08:35.039Z,99478.22
2023-12-26T08:11:01.694Z,99477.22
2023-12-26T08:13:28.238Z,99480.34
2023-12-26T08:15:54.839Z,99490.56
2023-12-26T08:18:22.046Z,99496.31
2023-12-26T08:20:48.673Z,99499.16
2023-12-26T08:23:15.185Z,99509.81
2023-12-26T08:25:41.791Z,99512.97
2023-12-26T08:28:08.326Z,99522.38
2023-12-26T08:30:39.383Z,99528.63
2023-12-26T08:33:06.688Z,99522.50
2023-12-26T08:35:33.487Z,99532.44
2023-12-26T08:38:00.001Z,99551.16
2023-12-26T08:40:26.558Z,99544.94
2023-12-26T08:42:53.119Z,99536.09
2023-12-26T08:45:19.892Z,99547.66
2023-12-26T08:47:47.073Z,99530.41
2023-12-26T08:50:13.687Z,99556.03
2023-12-26T08:52:40.280Z,99555.56
2023-12-26T08:55:07.089Z,99567.34
2023-12-26T08:57:33.615Z,99565.53
2023-12-26T09:00:01.308Z,99582.75
2023-12-26T09:02:27.966Z,99581.75
2023-12-26T09:04:54.469Z,99572.56
2023-12-26T09:07:21.046Z,99584.09
2023-12-26T09:09:47.548Z,99580.25
2023-12-26T09:12:14.227Z,99572.31
2023-12-26T09:14:40.964Z,99571.84
2023-12-26T09:17:07.587Z,99585.78
2023-12-26T09:19:34.510Z,99600.19
2023-12-26T09:22:01.038Z,99596.00
2023-12-26T09:24:28.085Z,99587.81
2023-12-26T09:26:54.632Z,99589.19
2023-12-26T09:29:22.770Z,99600.28
2023-12-26T09:31:49.376Z,99617.19
2023-12-26T09:34:16.063Z,99619.69
2023-12-26T09:36:42.650Z,99623.53
2023-12-26T09:39:09.168Z,99619.59
2023-12-26T09:41:35.769Z,99639.06
2023-12-26T09:44:03.091Z,99641.31
2023-12-26T09:46:31.352Z,99641.78
2023-12-26T09:48:58.037Z,99653.88
2023-12-26T09:51:45.356Z,99636.34
2023-12-26T09:54:13.775Z,99647.09
2023-12-26T09:56:41.871Z,99651.66
2023-12-26T09:59:08.876Z,99661.50
2023-12-26T10:01:35.382Z,99658.78
2023-12-26T10:04:04.514Z,99664.69
2023-12-26T10:06:31.835Z,99660.25
2023-12-26T10:08:58.767Z,99664.78
2023-12-26T10:11:27.830Z,99669.66
2023-12-26T10:13:55.690Z,99652.44
2023-12-26T10:16:22.788Z,99654.91
2023-12-26T10:18:51.533Z,99664.31
2023-12-26T10:21:20.883Z,99664.88
2023-12-26T10:23:47.596Z,99667.78
2023-12-26T10:26:15.279Z,99688.63
2023-12-26T10:28:42.940Z,99683.75
2023-12-26T10:31:16.599Z,99689.22
2023-12-26T10:33:43.869Z,99695.09
2023-12-26T10:36:12.072Z,99697.84
2023-12-26T10:38:41.817Z,99702.81
2023-12-26T10:41:14.619Z,99699.25
2023-12-26T10:43:44.321Z,99696.78
2023-12-26T10:46:10.915Z,99702.69
2023-12-26T10:48:40.697Z,99714.59
2023-12-26T10:51:07.831Z,99705.66
2023-12-26T10:53:53.214Z,99709.75
2023-12-26T10:56:21.216Z,99709.66
2023-12-26T10:58:48.128Z,99729.47
2023-12-26T11:01:16.343Z,99723.81
2023-12-26T11:03:43.061Z,99734.56
2023-12-26T11:06:09.699Z,99715.06
2023-12-26T11:08:36.258Z,99718.16
2023-12-26T11:11:03.114Z,99729.72
2023-12-26T11:13:29.592Z,99737.34
2023-12-26T11:15:56.380Z,99746.97
2023-12-26T11:18:25.444Z,99750.22
2023-12-26T11:20:53.718Z,99746.72
2023-12-26T11:23:23.425Z,99746.38
2023-12-26T11:25:51.414Z,99750.81
2023-12-26T11:28:18.490Z,99766.28
2023-12-26T11:30:46.738Z,99754.47
2023-12-26T11:33:14.001Z,99761.16
2023-12-26T11:35:41.376Z,99757.56
2023-12-26T11:38:08.310Z,99764.59
2023-12-26T11:40:35.647Z,99757.69
2023-12-26T11:43:02.355Z,99781.00
2023-12-26T11:45:29.290Z,99780.66
2023-12-26T11:47:56.328Z,99781.09
2023-12-26T11:50:22.986Z,99788.94
2023-12-26T11:52:49.501Z,99786.56
2023-12-26T11:55:16.145Z,99773.63
2023-12-26T11:57:42.696Z,99772.69
2023-12-26T12:00:09.321Z,99772.16
2023-12-26T12:02:35.860Z,99775.66
2023-12-26T12:05:07.274Z,99779.25
2023-12-26T12:07:33.817Z,99757.47
2023-12-26T12:10:10.200Z,99787.63
2023-12-26T12:12:36.754Z,99786.63
2023-12-26T12:15:04.381Z,99803.56
2023-12-26T12:17:31.727Z,99810.06
2023-12-26T12:20:02.088Z,99809.59
2023-12-26T12:22:31.221Z,99808.66
2023-12-26T12:25:00.153Z,99816.97
2023-12-26T12:27:26.973Z,99821.03
2023-12-26T12:29:59.922Z,99823.53
2023-12-26T12:32:33.813Z,99826.03
2023-12-26T12:35:18.080Z,99822.63
2023-12-26T12:37:49.513Z,99820.47
2023-12-26T12:40:16.769Z,99837.16
2023-12-26T12:42:43.414Z,99831.72
2023-12-26T12:45:10.108Z,99824.47
2023-12-26T12:47:36.868Z,99850.56
2023-12-26T12:50:04.874Z,99850.22
2023-12-26T12:52:32.906Z,99855.84
2023-12-26T12:54:59.465Z,99848.72
2023-12-26T12:57:26.082Z,99851.78
2023-12-26T12:59:52.717Z,99823.97
2023-12-26T13:02:19.351Z,99851.19
2023-12-26T13:04:46.448Z,99854.50
2023-12-26T13:07:13.472Z,99860.47
2023-12-26T13:09:40.723Z,99867.59
2023-12-26T13:12:08.088Z,99869.44
2023-12-26T13:14:36.076Z,99874.06
2023-12-26T13:17:03.232Z,99871.94
2023-12-26T13:19:34.186Z,99871.00
2023-12-26T13:22:01.871Z,99879.03
2023-12-26T13:24:28.453Z,99880.84
2023-12-26T13:26:55.041Z,99893.22
2023-12-26T13:29:25.444Z,99900.25
2023-12-26T13:31:54.124Z,99884.38
2023-12-26T13:34:28.919Z,99877.78
2023-12-26T13:36:55.656Z,99880.25
2023-12-26T13:39:22.311Z,99884.91
2023-12-26T13:41:49.027Z,99897.81
2023-12-26T13:44:18.381Z,99904.69
2023-12-26T13:46:45.035Z,99901.91
2023-12-26T13:49:11.773Z,99912.50
2023-12-26T13:51:40.532Z,99907.47
2023-12-26T13:54:08.231Z,99913.44
2023-12-26T13:56:34.808Z,99911.88
2023-12-26T13:59:02.529Z,99940.19
2023-12-26T14:01:29.461Z,99931.22
2023-12-26T14:03:57.471Z,99938.31
2023-12-26T14:06:24.328Z,99950.78
2023-12-26T14:08:52.735Z,99947.25
2023-12-26T14:11:20.411Z,99958.09
2023-12-26T14:13:47.968Z,99950.91
2023-12-26T14:16:16.040Z,99968.00
2023-12-26T14:18:43.176Z,99964.09
2023-12-26T14:21:09.936Z,99967.41
2023-12-26T14:23:36.603Z,99983.91
2023-12-26T14:26:03.183Z,99976.59
2023-12-26T14:28:29.747Z,99985.47
2023-12-26T14:30:56.698Z,100004.31
2023-12-26T14:33:23.718Z,100001.13
2023-12-26T14:35:51.342Z,100010.19
2023-12-26T14:38:18.412Z,100017.19
2023-12-26T14:40:49.562Z,100018.81
2023-12-26T14:43:16.616Z,100021.09
2023-12-26T14:45:43.263Z,100025.91
2023-12-26T14:48:10.048Z,100032.31
2023-12-26T14:50:36.752Z,100034.16
2023-12-26T14:53:05.848Z,100041.56
2023-12-26T14:55:33.944Z,100028.56
2023-12-26T14:58:00.725Z,100042.53
2023-12-26T15:00:27.714Z,100044.31
2023-12-26T15:02:54.973Z,100048.91
2023-12-26T15:05:22.195Z,100044.28
2023-12-26T15:07:50.850Z,100045.66
2023-12-26T15:10:18.514Z,100046.84
2023-12-26T15:12:47.468Z,100057.47
2023-12-26T15:15:14.205Z,100061.44
2023-12-26T15:17:41.334Z,100059.28
2023-12-26T15:20:12.115Z,100056.03
2023-12-26T15:22:39.497Z,100066.22
2023-12-26T15:25:06.341Z,100071.84
2023-12-26T15:27:33.036Z,100061.81
2023-12-26T15:29:59.714Z,100073.03
2023-12-26T15:32:26.262Z,100067.63
2023-12-26T15:34:53.322Z,100065.59
2023-12-26T15:37:19.944Z,100071.44
2023-12-26T15:39:46.574Z,100073.84
2023-12-26T15:42:13.261Z,100068.81
2023-12-26T15:44:41.433Z,100089.50
2023-12-26T15:47:09.734Z,100079.88
2023-12-26T15:49:36.415Z,100087.47
2023-12-26T15:52:03.147Z,100076.28
2023-12-26T15:54:29.924Z,100084.28
2023-12-26T15:56:56.647Z,100074.50
2023-12-26T15:59:23.252Z,100099.56
2023-12-26T16:01:49.755Z,100073.97
2023-12-26T16:04:16.447Z,100080.59
2023-12-26T16:06:43.074Z,100071.28
2023-12-26T16:09:09.741Z,100086.13
2023-12-26T16:11:36.696Z,100086.75
2023-12-26T16:14:05.587Z,100095.56
2023-12-26T16:16:32.084Z,100092.16
2023-12-26T16:18:58.749Z,100105.78
2023-12-26T16:21:25.688Z,100107.97
2023-12-26T16:23:52.465Z,100114.38
2023-12-26T16:26:19.087Z,100103.59
2023-12-26T16:28:45.648Z,100091.44
2023-12-26T16:31:15.906Z,100100.63
2023-12-26T16:33:42.775Z,100103.25
2023-12-26T16:36:10.670Z,100107.63
2023-12-26T16:38:37.520Z,100103.03
2023-12-26T16:41:09.144Z,100111.41
2023-12-26T16:43:36.391Z,100106.00
2023-12-26T16:46:10.369Z,100115.97
2023-12-26T16:48:39.784Z,100125.34
2023-12-26T16:51:08.424Z,100117.53
2023-12-26T16:53:38.209Z,100120.91
2023-12-26T16:56:09.009Z,100121.34
2023-12-26T16:58:36.552Z,100107.34
2023-12-26T17:01:04.905Z,100105.81
2023-12-26T17:03:32.119Z,100122.00
2023-12-26T17:06:02.400Z,100116.22
2023-12-26T17:08:28.912Z,100118.25
2023-12-26T17:10:55.488Z,100116.22
2023-12-26T17:13:22.065Z,100114.16
2023-12-26T17:15:48.655Z,100122.97
2023-12-26T17:18:15.325Z,100123.78
2023-12-26T17:20:43.641Z,100115.75
2023-12-26T17:23:10.634Z,100110.75
2023-12-26T17:25:37.949Z,100130.16
2023-12-26T17:28:10.329Z,100135.19
2023-12-26T17:30:37.595Z,100126.00
2023-12-26T17:33:04.517Z,100136.84
2023-12-26T17:35:33.694Z,100135.84
2023-12-26T17:38:01.471Z,100139.25
2023-12-26T17:40:28.045Z,100148.28
2023-12-26T17:42:54.583Z,100145.28
2023-12-26T17:45:21.179Z,100136.09
2023-12-26T17:47:47.958Z,100139.06
2023-12-26T17:50:14.715Z,100149.44
2023-12-26T17:52:41.227Z,100141.25
2023-12-26T17:55:08.077Z,100151.88
2023-12-26T17:57:34.837Z,100167.91
2023-12-26T18:00:01.552Z,100159.53
2023-12-26T18:02:28.153Z,100171.91
2023-12-26T18:04:56.135Z,100158.91
2023-12-26T18:07:22.771Z,100170.34
2023-12-26T18:09:49.351Z,100177.94
2023-12-26T18:12:15.967Z,100169.31
2023-12-26T18:14:42.825Z,100175.94
2023-12-26T18:17:09.413Z,100179.09
2023-12-26T18:19:35.957Z,100187.09
2023-12-26T18:22:02.519Z,100184.50
2023-12-26T18:24:29.056Z,100178.69
2023-12-26T18:26:55.615Z,100178.69
2023-12-26T18:29:23.458Z,100181.53
2023-12-26T18:31:50.459Z,100180.09
2023-12-26T18:34:17.151Z,100190.88
2023-12-26T18:36:43.774Z,100181.91
2023-12-26T18:39:11.022Z,100195.66
2023-12-26T18:41:43.182Z,100208.50
2023-12-26T18:44:10.949Z,100209.47
2023-12-26T18:46:38.216Z,100213.31
2023-12-26T18:49:08.332Z,100210.50
2023-12-26T18:51:35.534Z,100197.09
2023-12-26T18:54:03.082Z,100201.50
2023-12-26T18:56:29.886Z,100214.69
2023-12-26T18:58:57.005Z,100212.69
2023-12-26T19:01:23.674Z,100211.50
2023-12-26T19:03:51.442Z,100211.50
2023-12-26T19:06:18.893Z,100212.69
2023-12-26T19:08:45.463Z,100224.91
2023-12-26T19:11:17.525Z,100225.91
2023-12-26T19:13:44.444Z,100220.28
2023-12-26T19:16:11.047Z,100230.69
2023-12-26T19:18:37.800Z,100236.28
2023-12-26T19:21:04.787Z,100239.91
2023-12-26T19:23:31.583Z,100240.50
2023-12-26T19:25:58.294Z,100237.53
2023-12-26T19:28:24.861Z,100242.50
2023-12-26T19:30:52.261Z,100246.31
2023-12-26T19:33:19.240Z,100248.09
2023-12-26T19:35:45.983Z,100253.09
2023-12-26T19:38:14.915Z,100261.69
2023-12-26T19:40:41.872Z,100261.28
2023-12-26T19:43:08.435Z,100266.09
2023-12-26T19:45:34.993Z,100268.31
2023-12-26T19:48:01.934Z,100273.09
2023-12-26T19:50:29.108Z,100278.28
2023-12-26T19:52:55.994Z,100277.09
2023-12-26T19:55:22.581Z,100275.88
2023-12-26T19:57:49.148Z,100277.88
2023-12-26T20:00:16.087Z,100283.09
2023-12-26T20:02:42.757Z,100298.09
2023-12-26T20:05:10.710Z,100294.91
2023-12-26T20:07:38.950Z,100303.88
2023-12-26T20:10:07.420Z,100312.69
2023-12-26T20:12:34.757Z,100314.88
2023-12-26T20:15:01.889Z,100331.44
2023-12-26T20:17:28.482Z,100333.63
2023-12-26T20:19:55.145Z,100340.59
2023-12-26T20:22:22.133Z,100346.31
2023-12-26T20:24:48.949Z,100356.06
2023-12-26T20:27:15.795Z,100374.97
2023-12-26T20:29:42.662Z,100389.25
2023-12-26T20:32:09.360Z,100383.16
2023-12-26T20:34:35.989Z,100382.09
2023-12-26T20:37:02.538Z,100390.75
2023-12-26T20:39:29.179Z,100387.69
2023-12-26T20:41:56.168Z,100406.56
2023-12-26T20:44:23.515Z,100407.09
2023-12-26T20:46:52.177Z,100395.72
2023-12-26T20:49:20.036Z,100404.03
2023-12-26T20:51:47.033Z,100416.16
2023-12-26T20:54:15.523Z,100409.22
2023-12-26T20:56:43.755Z,100417.97
2023-12-26T20:59:11.338Z,100417.53
2023-12-26T21:01:38.601Z,100421.72
2023-12-26T21:04:05.887Z,100427.09
2023-12-26T21:06:33.059Z,100427.91
2023-12-26T21:08:59.820Z,100417.72
2023-12-26T21:11:26.440Z,100422.72
2023-12-26T21:13:56.187Z,100448.84
2023-12-26T21:16:22.958Z,100453.84
2023-12-26T21:18:53.208Z,100464.81
2023-12-26T21:21:21.878Z,100469.38
2023-12-26T21:23:48.634Z,100466.78
2023-12-26T21:26:15.276Z,100455.44
2023-12-26T21:28:42.118Z,100472.16
2023-12-26T21:31:09.911Z,100469.91
2023-12-26T21:33:37.830Z,100484.88
2023-12-26T21:36:05.023Z,100490.41
2023-12-26T21:38:32.955Z,100503.53
2023-12-26T21:41:01.108Z,100498.28
2023-12-26T21:43:27.590Z,100504.22
2023-12-26T21:45:54.767Z,100509.47
2023-12-26T21:48:21.831Z,100509.56
2023-12-26T21:50:48.658Z,100520.66
2023-12-26T21:53:15.249Z,100517.00
2023-12-26T21:55:42.130Z,100517.00
2023-12-26T21:58:08.865Z,100513.78
2023-12-26T22:00:36.175Z,100513.59
2023-12-26T22:03:02.936Z,100523.59
2023-12-26T22:05:29.618Z,100526.38
2023-12-26T22:07:56.403Z,100535.75
2023-12-26T22:10:23.138Z,100540.94
2023-12-26T22:12:50.418Z,100536.72
2023-12-26T22:15:23.636Z,100541.28
2023-12-26T22:17:51.401Z,100535.66
2023-12-26T22:20:18.278Z,100537.97
2023-12-26T22:22:44.806Z,100545.47
2023-12-26T22:25:11.322Z,100539.34
2023-12-26T22:27:42.296Z,100556.00
2023-12-26T22:30:09.436Z,100565.03
2023-12-26T22:32:36.217Z,100571.44
2023-12-26T22:35:03.438Z,100558.00
2023-12-26T22:37:30.226Z,100580.41
2023-12-26T22:39:57.190Z,100563.34
2023-12-26T22:42:25.918Z,100596.50
2023-12-26T22:44:53.853Z,100592.09
2023-12-26T22:47:20.382Z,100593.91
2023-12-26T22:49:47.069Z,100597.38
2023-12-26T22:52:13.654Z,100595.22
2023-12-26T22:54:41.688Z,100596.81
2023-12-26T22:57:08.955Z,100595.13
2023-12-26T22:59:35.550Z,100600.63
2023-12-26T23:02:04.021Z,100612.97
2023-12-26T23:04:30.588Z,100619.28
2023-12-26T23:06:57.170Z,100629.16
2023-12-26T23:09:23.798Z,100628.88
2023-12-26T23:11:50.446Z,100625.22
2023-12-26T23:14:17.006Z,100630.91
2023-12-26T23:16:45.301Z,100629.47
2023-12-26T23:19:13.540Z,100636.25
2023-12-26T23:21:40.937Z,100621.38
2023-12-26T23:24:08.443Z,100645.72
2023-12-26T23:26:35.123Z,100642.66
2023-12-26T23:29:04.805Z,100648.28
2023-12-26T23:31:32.549Z,100659.69
2023-12-26T23:33:59.786Z,100661.78
2023-12-26T23:36:26.773Z,100658.03
2023-12-26T23:38:53.477Z,100665.00
2023-12-26T23:41:20.206Z,100683.75
2023-12-26T23:43:46.742Z,100683.91
2023-12-26T23:46:13.331Z,100699.44
2023-12-26T23:48:42.582Z,100696.25
2023-12-26T23:51:10.694Z,100697.09
2023-12-26T23:53:37.250Z,100698.47
2023-12-26T23:56:04.068Z,100708.44
2023-12-26T23:58:30.685Z,100705.75
